sensor_id;sensor_type;location;lat;lon;timestamp;pressure;altitude;pressure_sealevel;temperature;humidity
28701;BME280;15877;52.344;16.790;2023-01-24T00:01:30;102947.55;;;5.71;71.87
28701;BME280;15877;52.344;16.790;2023-01-24T00:04:03;102952.35;;;5.72;71.82
28701;BME280;15877;52.344;16.790;2023-01-24T00:06:35;102956.98;;;5.72;71.98
28701;BME280;15877;52.344;16.790;2023-01-24T00:09:08;102956.98;;;5.72;71.84
28701;BME280;15877;52.344;16.790;2023-01-24T00:11:40;102958.24;;;5.73;71.87
28701;BME280;15877;52.344;16.790;2023-01-24T00:14:13;102955.72;;;5.73;72.08
28701;BME280;15877;52.344;16.790;2023-01-24T00:16:45;102938.75;;;5.63;72.05
28701;BME280;15877;52.344;16.790;2023-01-24T00:19:18;102953.77;;;5.70;72.03
28701;BME280;15877;52.344;16.790;2023-01-24T00:21:51;102952.45;;;5.70;72.01
28701;BME280;15877;52.344;16.790;2023-01-24T00:24:23;102949.95;;;5.67;71.88
28701;BME280;15877;52.344;16.790;2023-01-24T00:26:57;102952.77;;;5.65;71.85
28701;BME280;15877;52.344;16.790;2023-01-24T00:29:29;102955.03;;;5.67;71.78
28701;BME280;15877;52.344;16.790;2023-01-24T00:32:02;102953.66;;;5.66;71.90
28701;BME280;15877;52.344;16.790;2023-01-24T00:34:35;102956.85;;;5.64;71.89
28701;BME280;15877;52.344;16.790;2023-01-24T00:37:08;102960.88;;;5.65;71.98
28701;BME280;15877;52.344;16.790;2023-01-24T00:39:41;102960.94;;;5.68;71.69
28701;BME280;15877;52.344;16.790;2023-01-24T00:42:14;102956.48;;;5.68;71.67
28701;BME280;15877;52.344;16.790;2023-01-24T00:44:47;102952.23;;;5.71;71.76
28701;BME280;15877;52.344;16.790;2023-01-24T00:47:20;102954.66;;;5.70;71.50
28701;BME280;15877;52.344;16.790;2023-01-24T00:49:52;102960.06;;;5.70;71.57
28701;BME280;15877;52.344;16.790;2023-01-24T00:52:25;102960.73;;;5.71;71.51
28701;BME280;15877;52.344;16.790;2023-01-24T00:54:58;102944.48;;;5.60;71.56
28701;BME280;15877;52.344;16.790;2023-01-24T00:57:31;102945.46;;;5.59;71.39
28701;BME280;15877;52.344;16.790;2023-01-24T01:00:04;102961.94;;;5.68;71.54
28701;BME280;15877;52.344;16.790;2023-01-24T01:02:37;102948.60;;;5.58;71.55
28701;BME280;15877;52.344;16.790;2023-01-24T01:05:10;102963.48;;;5.69;71.54
28701;BME280;15877;52.344;16.790;2023-01-24T01:07:42;102965.02;;;5.71;71.54
28701;BME280;15877;52.344;16.790;2023-01-24T01:12:47;102966.86;;;5.74;71.51
28701;BME280;15877;52.344;16.790;2023-01-24T01:15:20;102964.54;;;5.72;71.24
28701;BME280;15877;52.344;16.790;2023-01-24T01:17:53;102961.12;;;5.73;71.30
28701;BME280;15877;52.344;16.790;2023-01-24T01:20:27;102961.35;;;5.73;71.46
28701;BME280;15877;52.344;16.790;2023-01-24T01:23:00;102967.47;;;5.74;71.52
28701;BME280;15877;52.344;16.790;2023-01-24T01:25:33;102968.24;;;5.76;71.51
28701;BME280;15877;52.344;16.790;2023-01-24T01:28:06;102966.05;;;5.78;71.47
28701;BME280;15877;52.344;16.790;2023-01-24T01:30:38;102966.77;;;5.78;71.33
28701;BME280;15877;52.344;16.790;2023-01-24T01:33:11;102962.79;;;5.76;71.34
28701;BME280;15877;52.344;16.790;2023-01-24T01:35:43;102962.05;;;5.73;71.33
28701;BME280;15877;52.344;16.790;2023-01-24T01:38:16;102965.10;;;5.76;71.34
28701;BME280;15877;52.344;16.790;2023-01-24T01:40:49;102966.31;;;5.76;71.24
28701;BME280;15877;52.344;16.790;2023-01-24T01:43:23;102965.10;;;5.76;71.37
28701;BME280;15877;52.344;16.790;2023-01-24T01:46:13;102958.42;;;5.74;71.44
28701;BME280;15877;52.344;16.790;2023-01-24T01:48:52;102958.42;;;5.75;71.17
28701;BME280;15877;52.344;16.790;2023-01-24T01:51:27;102963.94;;;5.73;71.03
28701;BME280;15877;52.344;16.790;2023-01-24T01:54:06;102963.92;;;5.72;70.97
28701;BME280;15877;52.344;16.790;2023-01-24T01:56:42;102962.84;;;5.72;70.95
28701;BME280;15877;52.344;16.790;2023-01-24T01:59:17;102958.91;;;5.73;70.98
28701;BME280;15877;52.344;16.790;2023-01-24T02:01:51;102957.20;;;5.74;71.02
28701;BME280;15877;52.344;16.790;2023-01-24T02:04:24;102956.64;;;5.74;71.04
28701;BME280;15877;52.344;16.790;2023-01-24T02:07:02;102959.08;;;5.73;71.13
28701;BME280;15877;52.344;16.790;2023-01-24T02:09:39;102952.98;;;5.66;71.19
28701;BME280;15877;52.344;16.790;2023-01-24T02:12:15;102952.27;;;5.66;71.05
28701;BME280;15877;52.344;16.790;2023-01-24T02:14:53;102947.42;;;5.69;70.91
28701;BME280;15877;52.344;16.790;2023-01-24T02:17:45;102948.36;;;5.67;70.80
28701;BME280;15877;52.344;16.790;2023-01-24T02:20:24;102935.86;;;5.59;70.87
28701;BME280;15877;52.344;16.790;2023-01-24T02:23:08;102947.65;;;5.70;71.11
28701;BME280;15877;52.344;16.790;2023-01-24T02:25:48;102945.45;;;5.70;71.09
28701;BME280;15877;52.344;16.790;2023-01-24T02:28:23;102944.88;;;5.65;71.17
28701;BME280;15877;52.344;16.790;2023-01-24T02:30:58;102946.65;;;5.68;70.95
28701;BME280;15877;52.344;16.790;2023-01-24T02:33:32;102948.07;;;5.66;71.00
28701;BME280;15877;52.344;16.790;2023-01-24T02:36:20;102947.69;;;5.64;71.00
28701;BME280;15877;52.344;16.790;2023-01-24T02:38:58;102950.83;;;5.65;71.02
28701;BME280;15877;52.344;16.790;2023-01-24T02:41:38;102956.41;;;5.68;70.95
28701;BME280;15877;52.344;16.790;2023-01-24T02:44:19;102955.64;;;5.64;70.69
28701;BME280;15877;52.344;16.790;2023-01-24T02:46:53;102955.80;;;5.64;70.75
28701;BME280;15877;52.344;16.790;2023-01-24T02:49:25;102953.09;;;5.63;71.11
28701;BME280;15877;52.344;16.790;2023-01-24T02:51:58;102932.20;;;5.53;71.08
28701;BME280;15877;52.344;16.790;2023-01-24T02:54:48;102947.42;;;5.66;71.06
28701;BME280;15877;52.344;16.790;2023-01-24T02:57:21;102949.41;;;5.66;71.21
28701;BME280;15877;52.344;16.790;2023-01-24T03:00:13;102951.56;;;5.68;71.19
28701;BME280;15877;52.344;16.790;2023-01-24T03:02:46;102956.52;;;5.69;71.21
28701;BME280;15877;52.344;16.790;2023-01-24T03:05:18;102951.89;;;5.67;71.32
28701;BME280;15877;52.344;16.790;2023-01-24T03:07:52;102959.10;;;5.65;71.27
28701;BME280;15877;52.344;16.790;2023-01-24T03:15:39;102960.24;;;5.72;70.92
28701;BME280;15877;52.344;16.790;2023-01-24T03:18:29;102947.60;;;5.56;71.12
28701;BME280;15877;52.344;16.790;2023-01-24T03:21:19;102965.13;;;5.66;71.07
28701;BME280;15877;52.344;16.790;2023-01-24T03:24:10;102964.95;;;5.65;70.88
28701;BME280;15877;52.344;16.790;2023-01-24T03:27:01;102968.35;;;5.63;71.12
28701;BME280;15877;52.344;16.790;2023-01-24T03:29:51;102977.80;;;5.63;71.25
28701;BME280;15877;52.344;16.790;2023-01-24T03:32:42;102961.88;;;5.56;71.15
28701;BME280;15877;52.344;16.790;2023-01-24T03:35:32;102975.30;;;5.63;70.96
28701;BME280;15877;52.344;16.790;2023-01-24T03:38:05;102971.70;;;5.59;70.74
28701;BME280;15877;52.344;16.790;2023-01-24T03:41:03;102975.03;;;5.50;70.58
28701;BME280;15877;52.344;16.790;2023-01-24T03:43:35;102974.48;;;5.40;70.70
28701;BME280;15877;52.344;16.790;2023-01-24T03:46:08;102950.75;;;5.23;70.75
28701;BME280;15877;52.344;16.790;2023-01-24T03:48:47;102972.45;;;5.41;70.74
28701;BME280;15877;52.344;16.790;2023-01-24T03:51:19;102972.23;;;5.41;70.73
28701;BME280;15877;52.344;16.790;2023-01-24T03:54:11;102953.52;;;5.35;71.14
28701;BME280;15877;52.344;16.790;2023-01-24T03:57:16;102967.41;;;5.46;71.40
28701;BME280;15877;52.344;16.790;2023-01-24T03:59:49;102963.63;;;5.52;71.35
28701;BME280;15877;52.344;16.790;2023-01-24T04:02:22;102964.13;;;5.53;71.51
28701;BME280;15877;52.344;16.790;2023-01-24T04:04:55;102968.21;;;5.53;71.52
28701;BME280;15877;52.344;16.790;2023-01-24T04:07:47;102973.78;;;5.53;71.32
28701;BME280;15877;52.344;16.790;2023-01-24T04:10:21;102971.97;;;5.55;71.12
28701;BME280;15877;52.344;16.790;2023-01-24T04:12:55;102967.95;;;5.55;71.32
28701;BME280;15877;52.344;16.790;2023-01-24T04:15:29;102965.31;;;5.59;71.19
28701;BME280;15877;52.344;16.790;2023-01-24T04:18:19;102962.22;;;5.60;71.12
28701;BME280;15877;52.344;16.790;2023-01-24T04:20:52;102963.84;;;5.64;71.00
28701;BME280;15877;52.344;16.790;2023-01-24T04:23:25;102945.39;;;5.55;71.12
28701;BME280;15877;52.344;16.790;2023-01-24T04:25:58;102960.88;;;5.65;71.16
28701;BME280;15877;52.344;16.790;2023-01-24T04:28:33;102956.78;;;5.64;70.99
28701;BME280;15877;52.344;16.790;2023-01-24T04:31:06;102944.57;;;5.56;70.75
28701;BME280;15877;52.344;16.790;2023-01-24T04:34:11;102955.61;;;5.60;71.16
28701;BME280;15877;52.344;16.790;2023-01-24T04:36:43;102941.36;;;5.53;71.01
28701;BME280;15877;52.344;16.790;2023-01-24T04:39:16;102922.55;;;5.42;71.01
28701;BME280;15877;52.344;16.790;2023-01-24T04:42:04;102950.23;;;5.63;71.07
28701;BME280;15877;52.344;16.790;2023-01-24T04:44:38;102946.45;;;5.61;71.28
28701;BME280;15877;52.344;16.790;2023-01-24T04:47:15;102947.17;;;5.61;71.32
28701;BME280;15877;52.344;16.790;2023-01-24T04:49:47;102944.90;;;5.59;71.47
28701;BME280;15877;52.344;16.790;2023-01-24T04:52:22;102924.98;;;5.43;71.47
28701;BME280;15877;52.344;16.790;2023-01-24T04:55:00;102938.54;;;5.51;71.65
28701;BME280;15877;52.344;16.790;2023-01-24T04:57:33;102938.91;;;5.51;71.80
28701;BME280;15877;52.344;16.790;2023-01-24T05:00:08;102940.31;;;5.56;71.62
28701;BME280;15877;52.344;16.790;2023-01-24T05:02:42;102949.81;;;5.58;71.50
28701;BME280;15877;52.344;16.790;2023-01-24T05:05:15;102929.64;;;5.47;71.59
28701;BME280;15877;52.344;16.790;2023-01-24T05:07:48;102945.22;;;5.56;71.48
28701;BME280;15877;52.344;16.790;2023-01-24T05:10:22;102946.16;;;5.55;71.37
28701;BME280;15877;52.344;16.790;2023-01-24T05:12:56;102946.42;;;5.55;71.13
28701;BME280;15877;52.344;16.790;2023-01-24T05:15:28;102948.50;;;5.49;71.03
28701;BME280;15877;52.344;16.790;2023-01-24T05:18:01;102936.73;;;5.37;71.08
28701;BME280;15877;52.344;16.790;2023-01-24T05:20:34;102960.67;;;5.46;71.08
28701;BME280;15877;52.344;16.790;2023-01-24T05:23:06;102959.98;;;5.43;71.20
28701;BME280;15877;52.344;16.790;2023-01-24T05:25:41;102958.55;;;5.39;71.54
28701;BME280;15877;52.344;16.790;2023-01-24T05:28:14;102964.19;;;5.43;71.67
28701;BME280;15877;52.344;16.790;2023-01-24T05:30:48;102968.65;;;5.42;71.74
28701;BME280;15877;52.344;16.790;2023-01-24T05:33:28;102970.23;;;5.40;72.02
28701;BME280;15877;52.344;16.790;2023-01-24T05:36:02;102974.33;;;5.41;72.17
28701;BME280;15877;52.344;16.790;2023-01-24T05:38:37;102976.79;;;5.37;72.35
28701;BME280;15877;52.344;16.790;2023-01-24T05:41:12;102979.83;;;5.38;72.43
28701;BME280;15877;52.344;16.790;2023-01-24T05:43:48;102977.36;;;5.41;72.29
28701;BME280;15877;52.344;16.790;2023-01-24T05:46:23;102973.93;;;5.38;72.38
28701;BME280;15877;52.344;16.790;2023-01-24T05:49:28;102977.10;;;5.44;72.21
28701;BME280;15877;52.344;16.790;2023-01-24T05:52:01;102979.03;;;5.45;71.99
28701;BME280;15877;52.344;16.790;2023-01-24T05:54:54;102979.91;;;5.45;71.78
28701;BME280;15877;52.344;16.790;2023-01-24T05:57:34;102979.64;;;5.45;71.82
28701;BME280;15877;52.344;16.790;2023-01-24T06:00:26;102985.80;;;5.42;71.80
28701;BME280;15877;52.344;16.790;2023-01-24T06:03:28;102975.39;;;5.31;71.74
28701;BME280;15877;52.344;16.790;2023-01-24T06:06:01;102979.20;;;5.24;71.98
28701;BME280;15877;52.344;16.790;2023-01-24T06:08:34;102990.14;;;5.39;71.92
28701;BME280;15877;52.344;16.790;2023-01-24T06:11:09;102991.09;;;5.41;71.71
28701;BME280;15877;52.344;16.790;2023-01-24T06:13:43;102988.25;;;5.37;72.01
28701;BME280;15877;52.344;16.790;2023-01-24T06:16:20;102967.59;;;5.30;71.70
28701;BME280;15877;52.344;16.790;2023-01-24T06:19:13;102985.13;;;5.37;71.64
28701;BME280;15877;52.344;16.790;2023-01-24T06:21:55;102990.67;;;5.27;71.84
28701;BME280;15877;52.344;16.790;2023-01-24T06:25:01;102980.98;;;5.25;71.74
28701;BME280;15877;52.344;16.790;2023-01-24T06:27:41;102992.30;;;5.32;71.86
28701;BME280;15877;52.344;16.790;2023-01-24T06:30:16;102999.38;;;5.33;71.81
28701;BME280;15877;52.344;16.790;2023-01-24T06:33:00;102996.88;;;5.20;72.08
28701;BME280;15877;52.344;16.790;2023-01-24T06:35:44;102996.80;;;5.28;72.19
28701;BME280;15877;52.344;16.790;2023-01-24T06:38:23;103008.27;;;5.19;72.23
28701;BME280;15877;52.344;16.790;2023-01-24T06:40:59;103010.61;;;5.25;71.99
28701;BME280;15877;52.344;16.790;2023-01-24T06:43:33;103016.05;;;5.28;71.92
28701;BME280;15877;52.344;16.790;2023-01-24T06:46:07;103015.07;;;5.22;71.94
28701;BME280;15877;52.344;16.790;2023-01-24T06:48:40;102983.65;;;5.04;72.04
28701;BME280;15877;52.344;16.790;2023-01-24T06:51:16;103017.54;;;5.29;72.17
28701;BME280;15877;52.344;16.790;2023-01-24T06:53:49;103022.19;;;5.31;72.18
28701;BME280;15877;52.344;16.790;2023-01-24T06:56:21;103020.77;;;5.33;72.21
28701;BME280;15877;52.344;16.790;2023-01-24T06:58:54;103022.80;;;5.34;72.20
28701;BME280;15877;52.344;16.790;2023-01-24T07:01:26;103022.46;;;5.32;72.07
28701;BME280;15877;52.344;16.790;2023-01-24T07:03:59;103025.64;;;5.37;72.08
28701;BME280;15877;52.344;16.790;2023-01-24T07:06:32;103027.52;;;5.38;71.98
28701;BME280;15877;52.344;16.790;2023-01-24T07:09:05;103026.60;;;5.40;71.97
28701;BME280;15877;52.344;16.790;2023-01-24T07:11:38;103025.39;;;5.41;71.87
28701;BME280;15877;52.344;16.790;2023-01-24T07:14:10;103028.15;;;5.43;71.85
28701;BME280;15877;52.344;16.790;2023-01-24T07:16:43;103030.11;;;5.46;71.59
28701;BME280;15877;52.344;16.790;2023-01-24T07:19:18;103039.21;;;5.46;71.63
28701;BME280;15877;52.344;16.790;2023-01-24T07:21:54;103042.47;;;5.47;71.79
28701;BME280;15877;52.344;16.790;2023-01-24T07:24:30;103032.98;;;5.43;72.04
28701;BME280;15877;52.344;16.790;2023-01-24T07:27:04;103043.41;;;5.49;72.04
28701;BME280;15877;52.344;16.790;2023-01-24T07:29:37;103044.91;;;5.50;72.15
28701;BME280;15877;52.344;16.790;2023-01-24T07:32:11;103049.17;;;5.53;71.91
28701;BME280;15877;52.344;16.790;2023-01-24T07:34:44;103049.98;;;5.49;71.82
28701;BME280;15877;52.344;16.790;2023-01-24T07:37:16;103049.83;;;5.53;71.81
28701;BME280;15877;52.344;16.790;2023-01-24T07:39:52;103056.30;;;5.54;71.86
28701;BME280;15877;52.344;16.790;2023-01-24T07:42:25;103059.57;;;5.58;71.57
28701;BME280;15877;52.344;16.790;2023-01-24T07:44:57;103063.34;;;5.61;71.43
28701;BME280;15877;52.344;16.790;2023-01-24T07:47:30;103043.58;;;5.49;71.65
28701;BME280;15877;52.344;16.790;2023-01-24T07:50:03;103060.63;;;5.59;71.64
28701;BME280;15877;52.344;16.790;2023-01-24T07:52:36;103064.94;;;5.61;71.53
28701;BME280;15877;52.344;16.790;2023-01-24T07:55:09;103045.20;;;5.52;71.50
28701;BME280;15877;52.344;16.790;2023-01-24T07:57:42;103064.37;;;5.66;71.61
28701;BME280;15877;52.344;16.790;2023-01-24T08:00:16;103060.79;;;5.69;71.49
28701;BME280;15877;52.344;16.790;2023-01-24T08:02:49;103042.42;;;5.59;71.36
28701;BME280;15877;52.344;16.790;2023-01-24T08:05:22;103039.84;;;5.60;71.28
28701;BME280;15877;52.344;16.790;2023-01-24T08:07:56;103067.89;;;5.74;71.38
28701;BME280;15877;52.344;16.790;2023-01-24T08:10:28;103064.05;;;5.72;71.41
28701;BME280;15877;52.344;16.790;2023-01-24T08:13:01;103057.11;;;5.74;71.15
28701;BME280;15877;52.344;16.790;2023-01-24T08:15:33;103056.02;;;5.75;71.11
28701;BME280;15877;52.344;16.790;2023-01-24T08:18:06;103056.79;;;5.74;71.07
28701;BME280;15877;52.344;16.790;2023-01-24T08:20:39;103058.40;;;5.76;71.28
28701;BME280;15877;52.344;16.790;2023-01-24T08:23:11;103057.43;;;5.68;70.96
28701;BME280;15877;52.344;16.790;2023-01-24T08:25:43;103056.23;;;5.75;70.95
28701;BME280;15877;52.344;16.790;2023-01-24T08:28:16;103054.65;;;5.76;71.10
28701;BME280;15877;52.344;16.790;2023-01-24T08:30:48;103055.89;;;5.71;71.28
28701;BME280;15877;52.344;16.790;2023-01-24T08:33:21;103059.48;;;5.71;70.93
28701;BME280;15877;52.344;16.790;2023-01-24T08:35:53;103057.32;;;5.79;71.23
28701;BME280;15877;52.344;16.790;2023-01-24T08:38:26;103036.35;;;5.74;71.08
28701;BME280;15877;52.344;16.790;2023-01-24T08:40:59;103053.73;;;5.87;70.95
28701;BME280;15877;52.344;16.790;2023-01-24T08:43:34;103044.65;;;5.79;70.84
28701;BME280;15877;52.344;16.790;2023-01-24T08:46:07;103065.46;;;5.94;70.99
28701;BME280;15877;52.344;16.790;2023-01-24T08:48:41;103061.73;;;5.96;71.24
28701;BME280;15877;52.344;16.790;2023-01-24T08:51:15;103057.76;;;5.98;71.06
28701;BME280;15877;52.344;16.790;2023-01-24T08:53:48;103059.04;;;6.00;71.05
28701;BME280;15877;52.344;16.790;2023-01-24T08:56:20;103038.46;;;5.89;71.06
28701;BME280;15877;52.344;16.790;2023-01-24T08:58:52;103054.41;;;6.03;70.89
28701;BME280;15877;52.344;16.790;2023-01-24T09:01:25;103057.45;;;6.02;70.83
28701;BME280;15877;52.344;16.790;2023-01-24T09:03:57;103063.64;;;6.08;70.62
28701;BME280;15877;52.344;16.790;2023-01-24T09:06:30;103067.83;;;6.06;70.77
28701;BME280;15877;52.344;16.790;2023-01-24T09:09:03;103071.50;;;6.12;70.84
28701;BME280;15877;52.344;16.790;2023-01-24T09:11:36;103066.27;;;6.15;70.45
28701;BME280;15877;52.344;16.790;2023-01-24T09:14:09;103070.31;;;6.19;70.36
28701;BME280;15877;52.344;16.790;2023-01-24T09:16:42;103069.60;;;6.19;70.38
28701;BME280;15877;52.344;16.790;2023-01-24T09:19:14;103065.19;;;6.21;70.13
28701;BME280;15877;52.344;16.790;2023-01-24T09:21:47;103055.27;;;6.12;70.10
28701;BME280;15877;52.344;16.790;2023-01-24T09:24:23;103073.77;;;6.28;70.15
28701;BME280;15877;52.344;16.790;2023-01-24T09:26:56;103075.04;;;6.28;70.01
28701;BME280;15877;52.344;16.790;2023-01-24T09:29:28;103060.81;;;6.20;69.91
28701;BME280;15877;52.344;16.790;2023-01-24T09:32:01;103078.10;;;6.33;69.98
28701;BME280;15877;52.344;16.790;2023-01-24T09:34:33;103080.47;;;6.36;69.92
28701;BME280;15877;52.344;16.790;2023-01-24T09:37:06;103085.71;;;6.37;70.14
28701;BME280;15877;52.344;16.790;2023-01-24T09:39:39;103072.45;;;6.30;70.30
28701;BME280;15877;52.344;16.790;2023-01-24T09:42:16;103089.62;;;6.42;70.31
28701;BME280;15877;52.344;16.790;2023-01-24T09:45:00;103094.80;;;6.43;70.51
28701;BME280;15877;52.344;16.790;2023-01-24T09:47:43;103096.41;;;6.47;70.43
28701;BME280;15877;52.344;16.790;2023-01-24T09:50:20;103100.52;;;6.51;70.18
28701;BME280;15877;52.344;16.790;2023-01-24T09:52:55;103103.77;;;6.49;70.37
28701;BME280;15877;52.344;16.790;2023-01-24T09:55:31;103105.10;;;6.52;70.66
28701;BME280;15877;52.344;16.790;2023-01-24T09:58:13;103103.89;;;6.56;70.38
28701;BME280;15877;52.344;16.790;2023-01-24T10:00:51;103097.10;;;6.56;70.42
28701;BME280;15877;52.344;16.790;2023-01-24T10:03:24;103098.75;;;6.56;70.42
28701;BME280;15877;52.344;16.790;2023-01-24T10:06:00;103102.13;;;6.55;70.62
28701;BME280;15877;52.344;16.790;2023-01-24T10:08:43;103098.20;;;6.57;70.08
28701;BME280;15877;52.344;16.790;2023-01-24T10:11:27;103101.45;;;6.56;70.33
28701;BME280;15877;52.344;16.790;2023-01-24T10:14:23;103097.91;;;6.54;70.56
28701;BME280;15877;52.344;16.790;2023-01-24T10:17:20;103097.09;;;6.56;70.73
28701;BME280;15877;52.344;16.790;2023-01-24T10:20:12;103060.30;;;6.34;70.66
28701;BME280;15877;52.344;16.790;2023-01-24T10:22:59;103095.43;;;6.52;71.05
28701;BME280;15877;52.344;16.790;2023-01-24T10:25:36;103092.02;;;6.61;71.11
28701;BME280;15877;52.344;16.790;2023-01-24T10:28:18;103090.55;;;6.67;71.04
28701;BME280;15877;52.344;16.790;2023-01-24T10:30:57;103092.05;;;6.71;71.18
28701;BME280;15877;52.344;16.790;2023-01-24T10:33:36;103091.59;;;6.68;71.25
28701;BME280;15877;52.344;16.790;2023-01-24T10:36:13;103088.35;;;6.73;71.57
28701;BME280;15877;52.344;16.790;2023-01-24T10:38:49;103082.55;;;6.77;71.27
28701;BME280;15877;52.344;16.790;2023-01-24T10:41:24;103083.27;;;6.81;71.12
28701;BME280;15877;52.344;16.790;2023-01-24T10:43:55;103076.09;;;6.82;71.40
28701;BME280;15877;52.344;16.790;2023-01-24T10:47:12;103070.67;;;6.87;70.94
28701;BME280;15877;52.344;16.790;2023-01-24T10:49:51;103020.48;;;6.58;71.32
28701;BME280;15877;52.344;16.790;2023-01-24T10:52:26;103065.59;;;6.86;71.68
28701;BME280;15877;52.344;16.790;2023-01-24T10:55:00;103060.24;;;6.93;71.52
28701;BME280;15877;52.344;16.790;2023-01-24T10:57:33;103055.03;;;6.93;71.58
28701;BME280;15877;52.344;16.790;2023-01-24T11:00:22;103057.63;;;6.99;71.32
28701;BME280;15877;52.344;16.790;2023-01-24T11:03:00;103057.36;;;7.03;70.73
28701;BME280;15877;52.344;16.790;2023-01-24T11:05:39;103057.30;;;7.06;70.72
28701;BME280;15877;52.344;16.790;2023-01-24T11:08:19;103027.69;;;6.85;71.01
28701;BME280;15877;52.344;16.790;2023-01-24T11:10:56;103062.61;;;7.06;71.29
28701;BME280;15877;52.344;16.790;2023-01-24T11:13:35;103057.64;;;7.12;70.88
28701;BME280;15877;52.344;16.790;2023-01-24T11:16:21;103058.80;;;7.12;70.70
28701;BME280;15877;52.344;16.790;2023-01-24T11:18:57;103058.52;;;7.10;70.66
28701;BME280;15877;52.344;16.790;2023-01-24T11:21:31;103058.52;;;7.09;70.74
28701;BME280;15877;52.344;16.790;2023-01-24T11:24:13;103054.48;;;7.17;70.85
28701;BME280;15877;52.344;16.790;2023-01-24T11:26:56;103051.32;;;7.19;70.78
28701;BME280;15877;52.344;16.790;2023-01-24T11:29:28;103049.16;;;7.22;70.49
28701;BME280;15877;52.344;16.790;2023-01-24T11:32:14;103051.92;;;7.23;70.33
28701;BME280;15877;52.344;16.790;2023-01-24T11:34:53;103050.37;;;7.26;70.00
28701;BME280;15877;52.344;16.790;2023-01-24T11:40:28;103049.16;;;7.25;69.85
28701;BME280;15877;52.344;16.790;2023-01-24T11:43:18;103028.05;;;7.19;69.70
28701;BME280;15877;52.344;16.790;2023-01-24T11:46:27;103043.29;;;7.28;69.54
28701;BME280;15877;52.344;16.790;2023-01-24T11:49:16;103039.04;;;7.25;69.02
28701;BME280;15877;52.344;16.790;2023-01-24T11:52:00;103039.25;;;7.24;69.45
28701;BME280;15877;52.344;16.790;2023-01-24T11:54:44;103032.73;;;7.23;69.65
28701;BME280;15877;52.344;16.790;2023-01-24T11:57:28;103030.63;;;7.21;69.68
28701;BME280;15877;52.344;16.790;2023-01-24T12:00:21;103030.46;;;7.24;69.55
28701;BME280;15877;52.344;16.790;2023-01-24T12:03:13;103023.67;;;7.22;69.39
28701;BME280;15877;52.344;16.790;2023-01-24T12:06:01;103031.02;;;7.23;69.19
28701;BME280;15877;52.344;16.790;2023-01-24T12:08:51;103005.05;;;7.08;69.22
28701;BME280;15877;52.344;16.790;2023-01-24T12:11:31;103021.13;;;7.20;69.49
28701;BME280;15877;52.344;16.790;2023-01-24T12:17:18;103010.06;;;7.23;69.49
28701;BME280;15877;52.344;16.790;2023-01-24T12:20:15;103007.80;;;7.21;68.94
28701;BME280;15877;52.344;16.790;2023-01-24T12:23:07;103012.66;;;7.19;69.08
28701;BME280;15877;52.344;16.790;2023-01-24T12:25:45;103009.19;;;7.13;69.50
28701;BME280;15877;52.344;16.790;2023-01-24T12:28:26;103000.66;;;7.16;69.42
28701;BME280;15877;52.344;16.790;2023-01-24T12:31:02;102999.67;;;7.16;69.36
28701;BME280;15877;52.344;16.790;2023-01-24T12:33:40;102994.48;;;7.16;69.23
28701;BME280;15877;52.344;16.790;2023-01-24T12:36:23;102989.77;;;7.19;69.05
28701;BME280;15877;52.344;16.790;2023-01-24T12:39:00;102986.57;;;7.16;68.54
28701;BME280;15877;52.344;16.790;2023-01-24T12:41:37;102982.44;;;7.15;68.44
28701;BME280;15877;52.344;16.790;2023-01-24T12:44:22;102982.45;;;7.07;68.63
28701;BME280;15877;52.344;16.790;2023-01-24T12:47:08;102983.77;;;7.09;69.00
28701;BME280;15877;52.344;16.790;2023-01-24T12:49:51;102986.86;;;7.10;68.69
28701;BME280;15877;52.344;16.790;2023-01-24T12:52:32;102984.70;;;7.11;68.52
28701;BME280;15877;52.344;16.790;2023-01-24T12:55:12;102980.60;;;7.15;68.64
28701;BME280;15877;52.344;16.790;2023-01-24T12:57:50;102986.96;;;7.14;68.53
28701;BME280;15877;52.344;16.790;2023-01-24T13:00:24;102998.80;;;7.12;67.66
28701;BME280;15877;52.344;16.790;2023-01-24T13:03:34;103008.75;;;7.11;67.77
28701;BME280;15877;52.344;16.790;2023-01-24T13:06:14;102990.03;;;6.99;68.00
28701;BME280;15877;52.344;16.790;2023-01-24T13:09:00;103006.66;;;7.11;68.06
28701;BME280;15877;52.344;16.790;2023-01-24T13:11:42;103003.78;;;7.10;68.37
28701;BME280;15877;52.344;16.790;2023-01-24T13:14:21;103004.77;;;7.08;68.30
28701;BME280;15877;52.344;16.790;2023-01-24T13:20:07;102998.31;;;7.07;68.59
28701;BME280;15877;52.344;16.790;2023-01-24T13:23:02;103003.79;;;7.01;67.68
28701;BME280;15877;52.344;16.790;2023-01-24T13:25:56;103000.98;;;7.03;68.40
28701;BME280;15877;52.344;16.790;2023-01-24T13:28:37;102996.65;;;7.03;68.52
28701;BME280;15877;52.344;16.790;2023-01-24T13:31:18;102996.39;;;7.00;67.47
28701;BME280;15877;52.344;16.790;2023-01-24T13:33:56;102995.55;;;6.98;68.25
28701;BME280;15877;52.344;16.790;2023-01-24T13:36:34;102996.39;;;6.96;68.50
28701;BME280;15877;52.344;16.790;2023-01-24T13:39:17;102996.00;;;6.97;68.61
28701;BME280;15877;52.344;16.790;2023-01-24T13:42:12;102994.66;;;7.01;68.64
28701;BME280;15877;52.344;16.790;2023-01-24T13:44:51;102996.16;;;6.98;68.48
28701;BME280;15877;52.344;16.790;2023-01-24T13:47:36;102998.98;;;7.00;68.42
28701;BME280;15877;52.344;16.790;2023-01-24T13:50:19;103005.05;;;7.02;68.09
28701;BME280;15877;52.344;16.790;2023-01-24T13:52:53;103001.69;;;7.00;68.10
28701;BME280;15877;52.344;16.790;2023-01-24T13:56:01;102996.95;;;6.95;68.02
28701;BME280;15877;52.344;16.790;2023-01-24T13:58:35;102994.52;;;6.93;68.10
28701;BME280;15877;52.344;16.790;2023-01-24T14:01:15;102993.80;;;6.93;67.96
28701;BME280;15877;52.344;16.790;2023-01-24T14:03:58;102995.95;;;6.92;67.86